Monday, November 20, 2017, 2:43 AM EST
Back to Local

KBDR, Sikorsky Memorial Airport

Location: Stratford, CT, United States Lat: 41.167
Local Time: 2:43 AM EST ( 7:43 GMT) Lon: -73.133
Time Zone: US/Eastern Elev: 9 ft

Show me the last for .
Show Decoded

2017-11-20 01:52 METAR KBDR 200652Z AUTO 28017G23KT 10SM CLR 04/M06 A2980 RMK AO2 SLP089
                 T00441061 =
2017-11-20 00:52 METAR KBDR 200552Z AUTO 28009KT 10SM CLR 04/M03 A2977 RMK AO2 SLP081 T00441033
                 10067 20044 53015 =
2017-11-19 23:52 METAR KBDR 200452Z AUTO 27009G16KT 10SM OVC095 06/M03 A2975 RMK AO2 SLP074
                 T00561028 401440050 =
2017-11-19 22:52 METAR KBDR 200352Z AUTO 26009G15KT 10SM OVC075 06/M03 A2974 RMK AO2 SLP072
                 T00561028 =
2017-11-19 21:52 METAR KBDR 200252Z 26008KT 10SM CLR 05/M03 A2973 RMK AO2 SLP066 T00501033 53020
                 =
2017-11-19 20:52 METAR KBDR 200152Z 27013G20KT 10SM CLR 06/M04 A2970 RMK AO2 SLP058 T00561039 =
2017-11-19 19:52 METAR KBDR 200052Z 29010KT 10SM CLR 06/M05 A2969 RMK AO2 PK WND 29027/0004
                 SLP052 T00611050 =
2017-11-19 18:52 METAR KBDR 192352Z 30011G21KT 10SM BKN050 07/M04 A2967 RMK AO2 SLP046 T00671044
                 10100 20061 51041 =
2017-11-19 17:52 METAR KBDR 192252Z 30013G21KT 10SM OVC048 07/M03 A2963 RMK AO2 PK WND 30032/2157
                 SLP034 T00671028 =
2017-11-19 16:52 METAR KBDR 192152Z 30020G27KT 10SM SCT045 07/M03 A2958 RMK AO2 PK WND 30039/2139
                 SLP018 T00671033 =
2017-11-19 15:52 METAR KBDR 192052Z 29017G30KT 10SM BKN045 08/M02 A2954 RMK AO2 PK WND 30034/1956
                 SLP004 T00781022 53041 =
2017-11-19 14:52 METAR KBDR 191952Z 30022G39KT 10SM CLR 09/M02 A2950 RMK AO2 PK WND 29040/1921
                 SLP989 T00891022 =
2017-11-19 13:52 METAR KBDR 191852Z 29019G33KT 10SM FEW046 09/M02 A2945 RMK AO2 PK WND 30039/1809
                 SLP974 T00941017 =
2017-11-19 12:52 METAR KBDR 191752Z 29022G35KT 10SM BKN046 10/M01 A2942 RMK AO2 PK WND 29035/1749
                 SLP964 60002 T01001011 10144 20100 51047 =
2017-11-19 11:52 METAR KBDR 191652Z 29023G39KT 10SM CLR 10/M01 A2939 RMK AO2 PK WND 28039/1650
                 SLP952 T01001006 =
2017-11-19 10:52 METAR KBDR 191552Z 29018G34KT 10SM BKN040 11/03 A2935 RMK AO2 PK WND 29035/1542
                 SLP938 T01110028 =
2017-11-19 09:52 METAR KBDR 191452Z 29019G38KT 10SM FEW034 SCT044 12/04 A2929 RMK AO2 PK WND
                 30038/1443 SLP917 60002 T01220039 53028 =
2017-11-19 08:52 METAR KBDR 191352Z 23018G27KT 10SM FEW024 BKN044 OVC085 14/11 A2921 RMK AO2 PK
                 WND 23027/1347 RAE31 SLP891 P0001 T01390111 =
2017-11-19 08:29 METAR KBDR 191329Z 22017KT 10SM -RA SCT026 OVC080 14/12 A2921 RMK AO2 PK WND
                 22026/1317 P0001 T01390117 =
2017-11-19 08:10 METAR KBDR 191310Z 22020G26KT 9SM -RA BKN026 OVC070 14/12 A2920 RMK AO2 PK WND
                 22026/1307 P0001 T01440117 =
2017-11-19 07:52 METAR KBDR 191252Z 22019G29KT 9SM -RA OVC070 14/12 A2921 RMK AO2 PK WND
                 22029/1243 SLP890 P0001 T01440122 =
2017-11-19 07:26 METAR KBDR 191226Z 21017KT 8SM -RA SCT017 SCT060 OVC070 14/13 A2921 RMK AO2
                 P0001 T01440128 =
2017-11-19 06:52 METAR KBDR 191152Z 21015KT 10SM -RA OVC017 14/13 A2920 RMK AO2 SLP889 P0001
                 60019 70034 T01440128 10144 20139 58025 =
2017-11-19 05:52 METAR KBDR 191052Z AUTO 21018G24KT 6SM -RA BR BKN016 OVC023 14/13 A2923 RMK AO2
                 PRESFR SLP899 P0008 T01440128 =
2017-11-19 04:52 METAR KBDR 190952Z AUTO 21016KT 7SM -RA OVC018 14/12 A2925 RMK AO2 RAE06B27
                 SLP905 P0004 T01440122 =
2017-11-19 03:52 METAR KBDR 190852Z AUTO 21018G24KT 7SM -RA SCT022 OVC029 14/12 A2928 RMK AO2
                 SLP914 P0006 60006 T01440122 58034 =
2017-11-19 03:43 METAR KBDR 190843Z AUTO 20017KT 7SM -RA OVC029 14/12 A2928 RMK AO2 P0006
                 T01440122 =
2017-11-19 02:52 METAR KBDR 190752Z AUTO 21015KT 7SM -RA OVC034 14/12 A2932 RMK AO2 RAB25 SLP929
                 P0000 T01440117 =

Support USWX by starting your Amazon purchase here.